createdAt,value
2019-02-14T00:00:15.013Z,99.90
2019-02-14T00:02:45.928Z,99.90
2019-02-14T00:05:16.729Z,99.90
2019-02-14T00:07:46.291Z,99.90
2019-02-14T00:10:15.579Z,99.90
2019-02-14T00:12:44.873Z,99.90
2019-02-14T00:15:14.529Z,99.90
2019-02-14T00:17:43.835Z,99.90
2019-02-14T00:20:13.132Z,99.90
2019-02-14T00:22:42.424Z,99.90
2019-02-14T00:25:11.785Z,99.90
2019-02-14T00:27:41.078Z,99.90
2019-02-14T00:30:10.931Z,99.90
2019-02-14T00:32:40.240Z,99.90
2019-02-14T00:35:09.524Z,99.90
2019-02-14T00:37:38.818Z,99.90
2019-02-14T00:40:09.147Z,99.90
2019-02-14T00:42:38.430Z,99.90
2019-02-14T00:45:08.274Z,99.90
2019-02-14T00:47:37.572Z,99.90
2019-02-14T00:50:07.890Z,99.90
2019-02-14T00:52:37.195Z,99.90
2019-02-14T00:55:06.752Z,99.90
2019-02-14T00:57:36.050Z,99.90
2019-02-14T01:00:07.275Z,99.90
2019-02-14T01:02:36.645Z,99.90
2019-02-14T01:05:06.969Z,99.90
2019-02-14T01:07:36.278Z,99.90
2019-02-14T01:10:06.406Z,99.90
2019-02-14T01:12:35.716Z,99.90
2019-02-14T01:15:08.647Z,99.90
2019-02-14T01:17:37.973Z,99.90
2019-02-14T01:20:07.707Z,99.90
2019-02-14T01:22:37.009Z,99.90
2019-02-14T01:25:06.846Z,99.90
2019-02-14T01:27:36.125Z,99.90
2019-02-14T01:30:08.727Z,99.90
2019-02-14T01:32:38.011Z,99.90
2019-02-14T01:35:09.371Z,99.90
2019-02-14T01:37:38.649Z,99.90
2019-02-14T01:40:08.407Z,99.90
2019-02-14T01:42:37.690Z,99.90
2019-02-14T01:45:10.230Z,99.90
2019-02-14T01:47:39.523Z,99.90
2019-02-14T01:50:10.754Z,99.90
2019-02-14T01:52:40.100Z,99.90
2019-02-14T01:55:09.476Z,99.90
2019-02-14T01:57:38.759Z,99.90
2019-02-14T02:00:12.239Z,99.90
2019-02-14T02:02:41.680Z,99.90
2019-02-14T02:05:11.007Z,99.90
2019-02-14T02:07:40.420Z,99.90
2019-02-14T02:10:11.472Z,99.90
2019-02-14T02:12:40.851Z,99.90
2019-02-14T02:15:12.853Z,99.90
2019-02-14T02:17:42.133Z,99.90
2019-02-14T02:20:11.436Z,99.90
2019-02-14T02:22:41.690Z,99.90
2019-02-14T02:25:11.960Z,99.90
2019-02-14T02:27:41.250Z,99.90
2019-02-14T02:30:12.973Z,99.90
2019-02-14T02:32:42.387Z,99.90
2019-02-14T02:35:11.770Z,99.90
2019-02-14T02:37:41.038Z,99.90
2019-02-14T02:40:11.419Z,99.90
2019-02-14T02:42:40.712Z,99.90
2019-02-14T02:45:11.846Z,99.90
2019-02-14T02:47:41.123Z,99.90
2019-02-14T02:50:11.971Z,99.90
2019-02-14T02:52:41.253Z,99.90
2019-02-14T02:55:10.988Z,99.90
2019-02-14T02:57:40.268Z,99.90
2019-02-14T03:00:14.976Z,99.90
2019-02-14T03:02:44.275Z,99.90
2019-02-14T03:05:15.130Z,99.90
2019-02-14T03:07:44.468Z,99.90
2019-02-14T03:10:14.235Z,99.90
2019-02-14T03:12:43.516Z,99.90
2019-02-14T03:15:14.480Z,99.90
2019-02-14T03:17:43.835Z,99.90
2019-02-14T03:20:13.500Z,99.90
2019-02-14T03:22:42.813Z,99.90
2019-02-14T03:25:17.440Z,99.90
2019-02-14T03:27:46.731Z,99.90
2019-02-14T03:30:16.489Z,99.90
2019-02-14T03:32:45.774Z,99.90
2019-02-14T03:35:15.896Z,99.90
2019-02-14T03:37:45.180Z,99.90
2019-02-14T03:40:14.892Z,99.90
2019-02-14T03:42:45.154Z,99.90
2019-02-14T03:45:18.614Z,99.90
2019-02-14T03:47:47.891Z,99.90
2019-02-14T03:50:17.188Z,99.90
2019-02-14T03:52:46.480Z,99.90
2019-02-14T03:55:15.778Z,99.90
2019-02-14T03:57:45.065Z,99.90
2019-02-14T04:00:17.787Z,99.90
2019-02-14T04:02:47.070Z,99.90
2019-02-14T04:05:16.366Z,99.90
2019-02-14T04:07:45.648Z,99.90
2019-02-14T04:10:15.231Z,99.90
2019-02-14T04:12:44.522Z,99.90
2019-02-14T04:15:17.759Z,99.90
2019-02-14T04:17:47.039Z,99.90
2019-02-14T04:20:16.411Z,99.90
2019-02-14T04:22:45.756Z,99.90
2019-02-14T04:25:15.037Z,99.90
2019-02-14T04:27:44.324Z,99.90
2019-02-14T04:30:14.355Z,99.90
2019-02-14T04:32:43.662Z,99.90
2019-02-14T04:35:12.950Z,99.90
2019-02-14T04:37:42.239Z,99.90
2019-02-14T04:40:12.982Z,99.90
2019-02-14T04:42:42.265Z,99.90
2019-02-14T04:45:13.089Z,99.90
2019-02-14T04:47:43.032Z,99.90
2019-02-14T04:50:12.393Z,99.90
2019-02-14T04:52:41.683Z,99.90
2019-02-14T04:55:12.296Z,99.90
2019-02-14T04:57:41.605Z,99.90
2019-02-14T05:00:15.130Z,99.90
2019-02-14T05:02:44.435Z,99.90
2019-02-14T05:05:13.730Z,99.90
2019-02-14T05:07:43.019Z,99.90
2019-02-14T05:10:12.536Z,99.90
2019-02-14T05:12:41.834Z,99.90
2019-02-14T05:15:11.605Z,99.90
2019-02-14T05:17:40.903Z,99.90
2019-02-14T05:20:11.256Z,99.90
2019-02-14T05:22:40.529Z,99.90
2019-02-14T05:25:10.150Z,99.90
2019-02-14T05:27:39.443Z,99.90
2019-02-14T05:30:11.766Z,99.90
2019-02-14T05:32:41.053Z,99.90
2019-02-14T05:35:10.344Z,99.90
2019-02-14T05:37:39.744Z,99.90
2019-02-14T05:40:11.107Z,99.90
2019-02-14T05:42:41.392Z,99.90
2019-02-14T05:45:14.333Z,99.90
2019-02-14T05:47:43.627Z,99.90
2019-02-14T05:50:16.709Z,99.90
2019-02-14T05:52:46.001Z,99.90
2019-02-14T05:55:15.282Z,99.90
2019-02-14T05:57:44.578Z,99.90
2019-02-14T06:00:16.175Z,99.90
2019-02-14T06:02:45.473Z,99.90
2019-02-14T06:05:14.755Z,99.90
2019-02-14T06:07:44.150Z,99.90
2019-02-14T06:10:13.643Z,99.90
2019-02-14T06:12:42.951Z,99.90
2019-02-14T06:15:13.476Z,99.90
2019-02-14T06:17:43.198Z,99.90
2019-02-14T06:20:13.441Z,99.90
2019-02-14T06:22:42.913Z,99.90
2019-02-14T06:25:13.252Z,99.90
2019-02-14T06:27:44.136Z,99.90
2019-02-14T06:30:18.328Z,99.90
2019-02-14T06:32:47.603Z,99.90
2019-02-14T06:35:16.898Z,99.90
2019-02-14T06:37:46.176Z,99.90
2019-02-14T06:40:15.487Z,99.90
2019-02-14T06:42:44.761Z,99.90
2019-02-14T06:45:15.591Z,99.90
2019-02-14T06:47:44.890Z,99.90
2019-02-14T06:50:14.197Z,99.90
2019-02-14T06:52:43.492Z,99.90
2019-02-14T06:55:12.784Z,99.90
2019-02-14T06:57:42.062Z,99.90
2019-02-14T07:00:15.624Z,99.90
2019-02-14T07:02:44.914Z,99.90
2019-02-14T07:05:14.200Z,99.90
2019-02-14T07:07:43.485Z,99.90
2019-02-14T07:10:13.026Z,99.90
2019-02-14T07:12:43.290Z,99.90
2019-02-14T07:15:13.930Z,99.90
2019-02-14T07:17:43.223Z,99.90
2019-02-14T07:20:17.048Z,99.90
2019-02-14T07:22:46.331Z,99.90
2019-02-14T07:25:15.669Z,99.90
2019-02-14T07:27:45.005Z,99.90
2019-02-14T07:30:22.207Z,99.90
2019-02-14T07:32:52.462Z,99.90
2019-02-14T07:35:21.760Z,99.90
2019-02-14T07:37:51.053Z,99.90
2019-02-14T07:40:20.346Z,99.90
2019-02-14T07:42:49.624Z,99.90
2019-02-14T07:45:19.054Z,99.90
2019-02-14T07:47:48.345Z,99.90
2019-02-14T07:50:17.640Z,99.90
2019-02-14T07:52:46.926Z,99.90
2019-02-14T07:55:16.295Z,99.90
2019-02-14T07:57:45.757Z,99.90
2019-02-14T08:00:19.199Z,99.90
2019-02-14T08:02:48.521Z,99.90
2019-02-14T08:05:17.825Z,99.90
2019-02-14T08:07:47.125Z,99.90
2019-02-14T08:10:17.558Z,99.90
2019-02-14T08:12:47.833Z,99.90
2019-02-14T08:15:17.124Z,99.90
2019-02-14T08:17:46.412Z,99.90
2019-02-14T08:20:18.892Z,99.90
2019-02-14T08:22:48.173Z,99.90
2019-02-14T08:25:17.479Z,99.90
2019-02-14T08:27:46.762Z,99.90
2019-02-14T08:30:20.181Z,99.90
2019-02-14T08:32:49.465Z,99.90
2019-02-14T08:35:18.752Z,99.90
2019-02-14T08:37:48.099Z,99.90
2019-02-14T08:40:23.363Z,99.90
2019-02-14T08:42:52.660Z,99.90
2019-02-14T08:45:21.955Z,99.90
2019-02-14T08:47:51.245Z,99.90
2019-02-14T08:50:20.533Z,99.90
2019-02-14T08:52:49.828Z,99.90
2019-02-14T08:55:19.124Z,99.90
2019-02-14T08:57:48.416Z,99.90
2019-02-14T09:00:17.972Z,99.90
2019-02-14T09:02:47.269Z,99.90
2019-02-14T09:05:16.547Z,99.90
2019-02-14T09:07:53.747Z,99.90
2019-02-14T09:10:18.144Z,99.90
2019-02-14T09:12:47.444Z,99.90
2019-02-14T09:15:16.738Z,99.60
2019-02-14T09:17:46.031Z,99.40
2019-02-14T09:20:18.030Z,99.20
2019-02-14T09:22:47.328Z,99.30
2019-02-14T09:25:16.611Z,99.30
2019-02-14T09:27:45.974Z,98.50
2019-02-14T09:30:15.333Z,98.70
2019-02-14T09:32:44.698Z,97.90
2019-02-14T09:35:13.975Z,98.30
2019-02-14T09:37:43.279Z,97.40
2019-02-14T09:40:17.820Z,98.10
2019-02-14T09:42:47.125Z,98.50
2019-02-14T09:45:17.761Z,98.30
2019-02-14T09:47:47.056Z,98.40
2019-02-14T09:50:16.346Z,98.00
2019-02-14T09:52:45.624Z,98.20
2019-02-14T09:55:14.994Z,98.20
2019-02-14T09:57:44.287Z,98.40
2019-02-14T10:00:18.289Z,98.60
2019-02-14T10:02:47.595Z,98.30
2019-02-14T10:05:16.936Z,98.00
2019-02-14T10:07:46.288Z,98.70
2019-02-14T10:10:19.935Z,98.80
2019-02-14T10:12:49.230Z,98.90
2019-02-14T10:15:18.523Z,98.20
2019-02-14T10:17:47.821Z,98.50
2019-02-14T10:20:17.750Z,98.90
2019-02-14T10:22:47.055Z,98.20
2019-02-14T10:25:16.353Z,97.70
2019-02-14T10:27:45.643Z,98.20
2019-02-14T10:30:21.628Z,98.10
2019-02-14T10:32:50.916Z,97.20
2019-02-14T10:35:20.199Z,97.50
2019-02-14T10:37:49.506Z,97.50
2019-02-14T10:40:18.786Z,97.30
2019-02-14T10:42:48.079Z,96.70
2019-02-14T10:45:19.873Z,95.70
2019-02-14T10:47:49.189Z,95.30
2019-02-14T10:50:18.483Z,94.70
2019-02-14T10:52:47.785Z,95.10
2019-02-14T10:55:17.079Z,93.90
2019-02-14T10:57:46.387Z,93.80
2019-02-14T11:00:21.578Z,93.20
2019-02-14T11:02:50.944Z,92.20
2019-02-14T11:05:20.472Z,90.60
2019-02-14T11:07:49.787Z,89.80
2019-02-14T11:10:19.083Z,85.60
2019-02-14T11:12:48.397Z,86.40
2019-02-14T11:15:21.955Z,86.40
2019-02-14T11:17:51.270Z,86.20
2019-02-14T11:20:20.583Z,82.50
2019-02-14T11:22:49.886Z,84.30
2019-02-14T11:25:25.263Z,82.10
2019-02-14T11:27:54.556Z,80.90
2019-02-14T11:30:23.869Z,82.60
2019-02-14T11:32:53.260Z,78.10
2019-02-14T11:35:22.558Z,80.40
2019-02-14T11:37:51.990Z,74.10
2019-02-14T11:40:21.300Z,75.20
2019-02-14T11:42:50.590Z,74.50
2019-02-14T11:45:22.201Z,72.80
2019-02-14T11:47:51.475Z,68.30
2019-02-14T11:50:20.782Z,67.00
2019-02-14T11:52:50.066Z,64.30
2019-02-14T11:55:19.416Z,66.20
2019-02-14T11:57:48.719Z,67.50
2019-02-14T12:00:26.025Z,64.20
2019-02-14T12:02:56.309Z,64.20
2019-02-14T12:05:25.875Z,64.10
2019-02-14T12:07:55.161Z,63.70
2019-02-14T12:10:24.455Z,63.40
2019-02-14T12:12:53.741Z,62.70
2019-02-14T12:15:23.647Z,65.90
2019-02-14T12:17:53.903Z,62.30
2019-02-14T12:20:23.198Z,63.50
2019-02-14T12:22:52.469Z,62.40
2019-02-14T12:25:24.371Z,59.50
2019-02-14T12:27:53.652Z,61.10
2019-02-14T12:30:23.013Z,62.90
2019-02-14T12:32:52.293Z,59.70
2019-02-14T12:35:21.587Z,61.70
2019-02-14T12:37:50.870Z,57.40
2019-02-14T12:40:20.165Z,58.00
2019-02-14T12:42:50.412Z,55.90
2019-02-14T12:45:24.277Z,54.70
2019-02-14T12:47:53.254Z,56.40
2019-02-14T12:50:22.535Z,51.30
2019-02-14T12:52:51.815Z,50.40
2019-02-14T12:55:21.105Z,49.00
2019-02-14T12:57:50.383Z,49.00
2019-02-14T13:00:22.296Z,48.70
2019-02-14T13:02:51.579Z,48.00
2019-02-14T13:05:20.939Z,47.50
2019-02-14T13:07:50.212Z,47.70
2019-02-14T13:10:19.681Z,46.60
2019-02-14T13:12:48.954Z,49.60
2019-02-14T13:15:23.732Z,48.80
2019-02-14T13:17:53.030Z,48.30
2019-02-14T13:20:22.383Z,50.30
2019-02-14T13:22:51.672Z,52.20
2019-02-14T13:25:20.963Z,50.90
2019-02-14T13:27:50.240Z,50.90
2019-02-14T13:30:24.906Z,53.60
2019-02-14T13:32:54.210Z,51.70
2019-02-14T13:35:23.525Z,51.50
2019-02-14T13:37:52.865Z,51.20
2019-02-14T13:40:22.156Z,50.90
2019-02-14T13:42:51.455Z,50.70
2019-02-14T13:45:24.459Z,50.70
2019-02-14T13:47:53.740Z,50.70
2019-02-14T13:50:23.033Z,49.50
2019-02-14T13:52:52.316Z,47.70
2019-02-14T13:55:21.608Z,47.10
2019-02-14T13:57:50.964Z,47.70
2019-02-14T14:00:28.164Z,46.70
2019-02-14T14:02:57.454Z,45.70
2019-02-14T14:05:26.739Z,42.50
2019-02-14T14:07:56.031Z,38.20
2019-02-14T14:10:25.345Z,38.60
2019-02-14T14:12:54.636Z,37.20
2019-02-14T14:15:23.931Z,36.10
2019-02-14T14:17:53.211Z,37.40
2019-02-14T14:20:22.508Z,35.80
2019-02-14T14:22:51.790Z,34.40
2019-02-14T14:25:21.073Z,35.80
2019-02-14T14:27:50.367Z,33.00
2019-02-14T14:30:19.652Z,32.60
2019-02-14T14:32:49.910Z,32.00
2019-02-14T14:35:19.190Z,33.00
2019-02-14T14:37:48.487Z,30.50
2019-02-14T14:40:20.288Z,32.00
2019-02-14T14:42:52.487Z,30.90
2019-02-14T14:45:41.529Z,31.30
2019-02-14T14:48:19.192Z,30.40
2019-02-14T14:50:43.439Z,30.20
2019-02-14T14:53:12.727Z,30.90
2019-02-14T14:55:42.056Z,30.00
2019-02-14T14:58:11.672Z,31.00
2019-02-14T15:00:41.005Z,30.80
2019-02-14T15:03:10.304Z,31.70
2019-02-14T15:05:39.583Z,30.00
2019-02-14T15:08:08.870Z,30.60
2019-02-14T15:10:38.160Z,31.30
2019-02-14T15:13:07.456Z,32.20
2019-02-14T15:15:36.735Z,31.00
2019-02-14T15:18:06.019Z,31.20
2019-02-14T15:20:35.313Z,31.80
2019-02-14T15:23:04.666Z,32.70
2019-02-14T15:25:33.973Z,31.40
2019-02-14T15:28:03.288Z,31.00
2019-02-14T15:30:32.589Z,32.50
2019-02-14T15:33:01.893Z,31.30
2019-02-14T15:35:31.232Z,31.30
2019-02-14T15:38:00.523Z,31.50
2019-02-14T15:40:29.805Z,32.20
2019-02-14T15:42:59.107Z,31.90
2019-02-14T15:45:28.387Z,31.00
2019-02-14T15:47:57.696Z,32.00
2019-02-14T15:50:27.901Z,32.00
2019-02-14T15:52:57.955Z,32.80
2019-02-14T15:55:27.235Z,33.30
2019-02-14T15:57:56.533Z,31.10
2019-02-14T16:00:25.813Z,32.80
2019-02-14T16:02:55.113Z,33.60
2019-02-14T16:05:24.405Z,35.10
2019-02-14T16:07:53.707Z,42.30
2019-02-14T16:10:23.007Z,40.70
2019-02-14T16:12:52.295Z,48.30
2019-02-14T16:15:21.591Z,45.00
2019-02-14T16:17:50.876Z,46.30
2019-02-14T16:20:20.179Z,51.80
2019-02-14T16:22:49.464Z,46.80
2019-02-14T16:25:18.761Z,52.50
2019-02-14T16:27:48.673Z,57.20
2019-02-14T16:30:19.029Z,57.60
2019-02-14T16:32:48.310Z,60.00
2019-02-14T16:35:17.607Z,61.30
2019-02-14T16:37:48.734Z,60.90
2019-02-14T16:40:27.197Z,64.70
2019-02-14T16:42:49.794Z,67.70
2019-02-14T16:45:19.158Z,69.70
2019-02-14T16:47:48.492Z,69.60
2019-02-14T16:50:17.774Z,72.00
2019-02-14T16:52:47.048Z,72.40
2019-02-14T16:55:16.331Z,73.70
2019-02-14T16:57:45.615Z,75.00
2019-02-14T17:00:14.928Z,76.30
2019-02-14T17:06:39.023Z,78.20
2019-02-14T17:15:31.820Z,81.40
2019-02-14T17:18:01.102Z,82.40
2019-02-14T17:20:30.386Z,84.40
2019-02-14T17:22:59.694Z,84.40
2019-02-14T17:25:28.970Z,83.90
2019-02-14T17:27:58.256Z,84.30
2019-02-14T17:30:27.546Z,83.60
2019-02-14T17:32:57.824Z,82.90
2019-02-14T17:35:27.110Z,86.20
2019-02-14T17:37:56.399Z,86.90
2019-02-14T17:40:25.701Z,87.60
2019-02-14T17:42:55.064Z,89.30
2019-02-14T17:45:24.360Z,90.40
2019-02-14T17:47:53.643Z,91.00
2019-02-14T17:50:22.946Z,90.90
2019-02-14T17:52:52.233Z,91.60
2019-02-14T17:55:21.529Z,91.60
2019-02-14T17:57:50.824Z,91.70
2019-02-14T18:00:20.107Z,92.20
2019-02-14T18:02:49.469Z,92.60
2019-02-14T18:05:18.758Z,92.90
2019-02-14T18:07:48.047Z,93.00
2019-02-14T18:10:17.345Z,93.90
2019-02-14T18:12:47.455Z,93.30
2019-02-14T18:15:16.740Z,93.60
2019-02-14T18:17:46.098Z,93.70
2019-02-14T18:20:15.396Z,94.00
2019-02-14T18:22:44.696Z,94.40
2019-02-14T18:25:14.262Z,94.20
2019-02-14T18:27:43.624Z,94.20
2019-02-14T18:30:13.349Z,94.20
2019-02-14T18:32:42.665Z,94.90
2019-02-14T18:35:12.499Z,95.00
2019-02-14T18:37:41.780Z,95.40
2019-02-14T18:40:12.297Z,95.60
2019-02-14T18:42:46.723Z,95.80
2019-02-14T18:45:16.179Z,95.80
2019-02-14T18:47:45.945Z,96.00
2019-02-14T18:50:15.311Z,96.10
2019-02-14T18:52:44.691Z,96.20
2019-02-14T18:55:13.967Z,96.30
2019-02-14T18:57:43.716Z,96.50
2019-02-14T19:00:20.163Z,96.70
2019-02-14T19:02:49.447Z,96.80
2019-02-14T19:05:18.796Z,97.00
2019-02-14T19:07:48.079Z,96.90
2019-02-14T19:10:17.751Z,97.10
2019-02-14T19:12:47.066Z,97.10
2019-02-14T19:15:17.347Z,97.00
2019-02-14T19:17:46.627Z,97.00
2019-02-14T19:20:15.922Z,97.30
2019-02-14T19:22:45.219Z,97.50
2019-02-14T19:25:14.568Z,97.70
2019-02-14T19:27:44.069Z,98.10
2019-02-14T19:30:13.975Z,97.80
2019-02-14T19:32:43.258Z,98.00
2019-02-14T19:35:12.549Z,98.30
2019-02-14T19:37:41.909Z,98.50
2019-02-14T19:40:11.204Z,98.50
2019-02-14T19:42:40.558Z,98.70
2019-02-14T19:45:11.121Z,98.50
2019-02-14T19:47:40.467Z,98.50
2019-02-14T19:50:11.403Z,98.90
2019-02-14T19:52:40.710Z,99.20
2019-02-14T19:55:10.089Z,99.00
2019-02-14T19:57:40.400Z,99.20
2019-02-14T20:00:14.076Z,98.80
2019-02-14T20:02:43.501Z,98.50
2019-02-14T20:05:12.780Z,98.20
2019-02-14T20:07:42.234Z,98.30
2019-02-14T20:10:15.593Z,98.50
2019-02-14T20:12:44.941Z,98.90
2019-02-14T20:15:19.688Z,98.60
2019-02-14T20:17:48.965Z,98.70
2019-02-14T20:20:18.244Z,98.70
2019-02-14T20:22:47.552Z,98.90
2019-02-14T20:25:25.545Z,98.90
2019-02-14T20:27:54.828Z,99.10
2019-02-14T20:30:24.135Z,98.90
2019-02-14T20:32:53.498Z,99.00
2019-02-14T20:35:22.775Z,99.40
2019-02-14T20:37:52.055Z,99.50
2019-02-14T20:40:21.333Z,99.90
2019-02-14T20:42:50.692Z,99.60
2019-02-14T20:45:19.975Z,99.40
2019-02-14T20:47:49.350Z,99.50
2019-02-14T20:50:18.644Z,99.40
2019-02-14T20:52:48.007Z,99.90
2019-02-14T20:55:25.118Z,99.90
2019-02-14T20:57:54.426Z,99.90
2019-02-14T21:00:25.399Z,99.90
2019-02-14T21:02:54.696Z,99.90
2019-02-14T21:05:23.992Z,99.90
2019-02-14T21:07:53.278Z,99.90
2019-02-14T21:10:22.574Z,99.90
2019-02-14T21:12:51.883Z,99.90
2019-02-14T21:15:21.159Z,99.90
2019-02-14T21:17:50.451Z,99.90
2019-02-14T21:20:19.736Z,99.90
2019-02-14T21:22:49.099Z,99.90
2019-02-14T21:25:22.611Z,99.90
2019-02-14T21:27:49.364Z,99.90
2019-02-14T21:30:20.416Z,99.90
2019-02-14T21:32:49.915Z,99.90
2019-02-14T21:35:19.334Z,99.90
2019-02-14T21:37:48.772Z,99.90
2019-02-14T21:40:19.846Z,99.90
2019-02-14T21:42:49.219Z,99.90
2019-02-14T21:45:18.610Z,99.90
2019-02-14T21:47:49.066Z,99.90
2019-02-14T21:50:18.438Z,99.90
2019-02-14T21:52:47.980Z,99.90
2019-02-14T21:55:17.690Z,99.90
2019-02-14T21:57:47.036Z,99.90
2019-02-14T22:00:23.255Z,99.90
2019-02-14T22:02:52.679Z,99.90
2019-02-14T22:05:25.307Z,99.90
2019-02-14T22:07:53.003Z,99.90
2019-02-14T22:10:22.294Z,99.90
2019-02-14T22:12:51.592Z,99.90
2019-02-14T22:15:23.224Z,99.90
2019-02-14T22:17:52.595Z,99.90
2019-02-14T22:20:21.863Z,99.90
2019-02-14T22:22:51.162Z,99.90
2019-02-14T22:25:20.443Z,99.90
2019-02-14T22:27:49.735Z,99.90
2019-02-14T22:30:19.017Z,99.90
2019-02-14T22:32:48.311Z,99.90
2019-02-14T22:35:17.595Z,99.90
2019-02-14T22:37:46.900Z,99.90
2019-02-14T22:40:16.179Z,99.90
2019-02-14T22:42:47.491Z,99.90
2019-02-14T22:45:16.439Z,99.90
2019-02-14T22:47:45.735Z,99.90
2019-02-14T22:50:15.083Z,99.90
2019-02-14T22:52:44.365Z,99.90
2019-02-14T22:55:16.356Z,99.90
2019-02-14T22:57:45.675Z,99.90
2019-02-14T23:00:34.057Z,99.90
2019-02-14T23:03:05.309Z,99.90
2019-02-14T23:05:34.587Z,99.90
2019-02-14T23:08:03.877Z,99.90
2019-02-14T23:10:33.155Z,99.90
2019-02-14T23:13:02.457Z,99.90
2019-02-14T23:15:31.726Z,99.90
2019-02-14T23:18:01.012Z,99.90
2019-02-14T23:20:30.377Z,99.90
2019-02-14T23:22:59.677Z,99.90
2019-02-14T23:25:28.951Z,99.90
2019-02-14T23:27:58.231Z,99.90
2019-02-14T23:30:27.520Z,99.90
2019-02-14T23:32:56.801Z,99.90
2019-02-14T23:35:26.093Z,99.90
2019-02-14T23:37:56.448Z,99.90
2019-02-14T23:40:25.812Z,99.90
2019-02-14T23:42:55.115Z,99.90
2019-02-14T23:45:25.430Z,99.90
2019-02-14T23:47:54.716Z,99.90
2019-02-14T23:50:24.009Z,99.90
2019-02-14T23:52:53.295Z,99.90
2019-02-14T23:55:22.588Z,99.90
2019-02-14T23:57:51.892Z,99.90
